Time;durP1;ratioP1;P1;durP2;ratioP2;P2;SDS_P1;SDS_P2;PMS_P1;PMS_P2;Temp;Humidity;BMP_temperature;BMP_pressure;BME280_temperature;BME280_humidity;BME280_pressure;Samples;Min_cycle;Max_cycle;Signal;HPM_P1;HPM_P2
2024/01/09 04:36:56;;;;;;;78.40;26.10;;;-6.20;99.90;;;;;;7601423;19;21030;-76
2024/01/09 04:39:29;;;;;;;65.35;25.67;;;-6.20;99.90;;;;;;7612507;19;20020;-76
2024/01/09 04:42:01;;;;;;;75.03;27.42;;;-6.20;99.90;;;;;;7615468;19;20093;-77
2024/01/09 04:44:33;;;;;;;67.00;23.98;;;-6.10;99.90;;;;;;7604676;19;20018;-74
2024/01/09 04:47:06;;;;;;;69.07;25.67;;;-6.00;99.90;;;;;;7600511;19;20022;-77
2024/01/09 04:49:38;;;;;;;68.87;29.50;;;-6.00;99.90;;;;;;7612596;19;20058;-74
2024/01/09 04:52:11;;;;;;;64.68;21.45;;;-5.90;99.90;;;;;;7601976;19;20279;-75
2024/01/09 04:54:43;;;;;;;68.50;27.02;;;-5.90;99.90;;;;;;7598917;19;20704;-75
2024/01/09 04:57:16;;;;;;;77.80;26.92;;;-5.90;99.90;;;;;;7605034;19;20014;-75
2024/01/09 04:59:49;;;;;;;55.50;19.33;;;-5.90;99.90;;;;;;7603304;19;20020;-75
2024/01/09 05:02:21;;;;;;;69.63;26.33;;;-5.90;99.90;;;;;;7598116;19;20018;-74
2024/01/09 05:04:54;;;;;;;70.20;24.13;;;-5.80;99.90;;;;;;7595858;19;20021;-76
2024/01/09 05:07:27;;;;;;;77.40;25.80;;;-5.80;99.90;;;;;;7585190;19;20014;-74
2024/01/09 05:09:59;;;;;;;64.63;24.00;;;-5.80;99.90;;;;;;7606645;19;20026;-76
2024/01/09 05:12:32;;;;;;;63.57;23.53;;;-5.80;99.90;;;;;;7592397;19;20607;-77
2024/01/09 05:15:05;;;;;;;62.57;26.30;;;-5.80;99.90;;;;;;7597365;19;20026;-77
2024/01/09 05:17:38;;;;;;;;;;;-5.80;99.90;;;;;;7597945;19;20017;-76
2024/01/09 05:20:11;;;;;;;66.32;25.85;;;-5.80;99.90;;;;;;7580710;19;19926;-77
2024/01/09 05:22:43;;;;;;;67.28;24.05;;;-5.80;99.90;;;;;;7596577;19;20018;-76
2024/01/09 05:25:19;;;;;;;66.80;26.48;;;-5.80;99.90;;;;;;7586866;19;20018;-74
2024/01/09 05:27:51;;;;;;;70.30;24.08;;;-5.90;99.90;;;;;;7582078;19;20926;-77
2024/01/09 05:30:23;;;;;;;60.37;23.57;;;-5.90;99.90;;;;;;7580078;19;20025;-78
2024/01/09 05:32:56;;;;;;;68.03;26.15;;;-5.90;99.90;;;;;;7592596;19;20544;-77
2024/01/09 05:35:29;;;;;;;63.77;25.80;;;-5.90;99.90;;;;;;7571340;19;21498;-76
2024/01/09 05:38:02;;;;;;;67.45;24.60;;;-5.90;99.90;;;;;;7583970;19;20507;-76
2024/01/09 05:40:51;;;;;;;64.00;24.10;;;-5.90;99.90;;;;;;7588930;19;20014;-76
2024/01/09 05:43:23;;;;;;;71.07;26.52;;;-5.90;99.90;;;;;;7586696;19;20019;-75
2024/01/09 05:45:56;;;;;;;68.05;26.10;;;-5.90;99.90;;;;;;7563723;19;20557;-76
2024/01/09 05:48:28;;;;;;;62.28;23.30;;;-5.90;99.90;;;;;;7535473;19;20077;-76
2024/01/09 05:51:01;;;;;;;67.55;23.70;;;-5.90;99.90;;;;;;7566899;19;20572;-76
2024/01/09 05:53:33;;;;;;;66.40;25.20;;;-5.90;99.90;;;;;;7562903;19;20752;-76
2024/01/09 05:56:06;;;;;;;68.93;24.57;;;-5.80;99.90;;;;;;7557556;19;20007;-76
2024/01/09 05:58:39;;;;;;;58.75;21.40;;;-6.00;99.90;;;;;;7556547;19;20014;-76
2024/01/09 06:01:11;;;;;;;63.50;25.83;;;-5.90;99.90;;;;;;7551811;19;20018;-75
2024/01/09 06:03:44;;;;;;;60.47;22.63;;;-5.90;99.90;;;;;;7556838;19;20555;-76
2024/01/09 06:06:16;;;;;;;56.45;22.77;;;-5.90;99.90;;;;;;7579475;19;20022;-76
2024/01/09 06:08:48;;;;;;;72.03;25.07;;;-6.00;99.90;;;;;;7568927;19;20899;-74
2024/01/09 06:11:21;;;;;;;59.40;20.67;;;-6.00;99.90;;;;;;7561435;19;20014;-76
2024/01/09 06:13:55;;;;;;;73.40;25.70;;;-6.00;99.90;;;;;;7559399;19;22253;-74
2024/01/09 06:16:28;;;;;;;64.53;24.63;;;-6.00;99.90;;;;;;7533973;19;20026;-74
2024/01/09 06:19:01;;;;;;;62.40;23.50;;;-6.10;99.90;;;;;;7547573;19;20015;-74
2024/01/09 06:21:34;;;;;;;67.53;24.77;;;-6.10;99.90;;;;;;7552991;19;20903;-75
2024/01/09 06:24:06;;;;;;;71.38;24.88;;;-6.10;99.90;;;;;;7568788;19;20027;-75
2024/01/09 06:26:38;;;;;;;70.53;26.98;;;-6.00;99.90;;;;;;7570439;19;20014;-73
2024/01/09 06:29:11;;;;;;;69.13;27.07;;;-6.00;99.90;;;;;;7561247;19;20006;-77
2024/01/09 06:31:44;;;;;;;73.25;25.95;;;-6.00;99.90;;;;;;7556780;19;20025;-76
2024/01/09 06:34:16;;;;;;;71.78;23.90;;;-6.10;99.90;;;;;;7566661;19;20011;-75
2024/01/09 06:36:49;;;;;;;65.60;25.65;;;-6.10;99.90;;;;;;7553286;19;20022;-74
2024/01/09 16:07:54;;;;;;;66.00;24.60;;;-6.40;99.90;;;;;;7496429;19;2976287;-80
2024/01/09 16:10:29;;;;;;;60.92;24.65;;;-6.40;99.90;;;;;;7662556;19;20022;-79
2024/01/09 16:13:03;;;;;;;64.55;23.73;;;-6.40;99.90;;;;;;7669624;19;20026;-78
2024/01/09 16:15:38;;;;;;;71.97;23.85;;;-6.40;99.90;;;;;;7623963;19;20530;-80
2024/01/09 16:18:10;;;;;;;66.40;25.30;;;-6.30;99.90;;;;;;7635601;19;20037;-80
2024/01/09 16:20:43;;;;;;;58.80;22.88;;;-6.20;99.90;;;;;;7621149;19;20010;-79
2024/01/09 16:23:16;;;;;;;59.08;23.63;;;-6.10;99.90;;;;;;7634834;19;20028;-80
2024/01/09 16:25:48;;;;;;;61.28;23.83;;;-6.10;99.90;;;;;;7637966;19;20022;-79
2024/01/09 16:28:21;;;;;;;58.07;24.03;;;-6.00;99.90;;;;;;7634820;19;20014;-80
2024/01/09 16:30:54;;;;;;;63.08;25.23;;;-6.00;99.90;;;;;;7635798;19;20018;-81
2024/01/09 16:33:26;;;;;;;60.80;24.60;;;-6.10;99.90;;;;;;7624508;19;22646;-81
2024/01/09 16:36:03;;;;;;;60.42;23.65;;;-6.10;99.90;;;;;;7618727;19;20097;-80
2024/01/09 16:38:36;;;;;;;57.90;24.27;;;-6.10;99.90;;;;;;7095580;19;10000105;-80
2024/01/09 16:41:08;;;;;;;63.40;28.43;;;-6.10;99.90;;;;;;7602081;19;20074;-80
2024/01/09 16:43:47;;;;;;;55.17;23.40;;;-6.10;99.90;;;;;;7619822;19;20018;-78
2024/01/09 16:46:20;;;;;;;56.80;24.35;;;-6.00;99.90;;;;;;7655694;19;20027;-79
2024/01/09 16:48:53;;;;;;;62.95;25.42;;;-6.00;99.90;;;;;;7651767;19;20022;-79
2024/01/09 16:51:26;;;;;;;64.72;23.52;;;-6.10;99.90;;;;;;7648917;19;20010;-79
2024/01/09 16:53:59;;;;;;;55.70;23.27;;;-6.20;99.90;;;;;;7637685;19;20527;-83
2024/01/09 16:56:32;;;;;;;61.50;23.60;;;-6.20;99.90;;;;;;7632946;19;20014;-78
2024/01/09 16:59:04;;;;;;;66.50;26.50;;;-6.10;99.90;;;;;;7631384;19;20019;-80
2024/01/09 17:01:37;;;;;;;63.75;25.48;;;-6.10;99.90;;;;;;7631466;19;20018;-81
2024/01/09 17:04:10;;;;;;;60.17;25.52;;;-6.10;99.90;;;;;;7632663;19;20496;-81
2024/01/09 17:06:42;;;;;;;66.75;25.80;;;-6.10;99.90;;;;;;7624136;19;20014;-81
2024/01/09 17:09:15;;;;;;;68.97;26.30;;;-6.10;99.90;;;;;;7632675;19;20352;-81
2024/01/09 17:11:48;;;;;;;59.60;26.20;;;-6.20;99.90;;;;;;7629945;19;20025;-81
2024/01/09 17:14:21;;;;;;;60.58;25.92;;;-6.20;99.90;;;;;;7633956;19;20017;-81
2024/01/09 17:16:54;;;;;;;62.67;24.70;;;-6.30;99.90;;;;;;7625758;19;20017;-79
2024/01/09 17:19:27;;;;;;;65.05;28.27;;;-6.30;99.90;;;;;;7599659;19;20645;-78
2024/01/09 17:22:00;;;;;;;66.35;27.48;;;-6.30;99.90;;;;;;7581068;19;20490;-79
2024/01/09 17:24:33;;;;;;;65.72;26.48;;;-6.40;99.90;;;;;;7589141;19;20028;-79
2024/01/09 17:27:06;;;;;;;70.68;26.17;;;-6.40;99.90;;;;;;7598311;19;20015;-82
2024/01/09 17:29:46;;;;;;;69.93;27.50;;;-6.40;99.90;;;;;;7574180;19;20014;-80
2024/01/09 17:32:22;;;;;;;62.45;24.60;;;-6.50;99.90;;;;;;7573519;19;20257;-79
2024/01/09 17:34:55;;;;;;;69.68;24.63;;;-6.40;99.90;;;;;;7578118;19;20025;-77
2024/01/09 17:37:30;;;;;;;59.90;23.90;;;-6.40;99.90;;;;;;7580511;19;20018;-75
2024/01/09 17:40:08;;;;;;;62.10;24.67;;;-6.30;99.90;;;;;;7531155;19;20022;-77
2024/01/09 17:42:40;;;;;;;60.22;24.20;;;-6.30;99.90;;;;;;7534546;19;20035;-74
2024/01/09 17:45:16;;;;;;;61.83;23.63;;;-6.30;99.90;;;;;;7587529;19;20029;-81
2024/01/09 17:47:49;;;;;;;60.17;25.90;;;-6.40;99.90;;;;;;7580257;19;20279;-77
2024/01/09 17:50:22;;;;;;;67.03;27.08;;;-6.60;99.90;;;;;;7571454;19;20481;-77
2024/01/09 17:52:54;;;;;;;64.35;28.00;;;-6.70;99.90;;;;;;7577562;19;20062;-77
2024/01/09 17:55:27;;;;;;;78.85;30.15;;;-6.70;99.90;;;;;;7585412;19;20014;-78
2024/01/09 17:58:00;;;;;;;71.63;28.90;;;-6.80;99.90;;;;;;7602998;19;20015;-76
2024/01/09 18:00:32;;;;;;;75.30;31.10;;;-6.90;99.90;;;;;;7590396;19;20288;-76
2024/01/09 18:03:05;;;;;;;78.60;31.73;;;-6.90;99.90;;;;;;7600298;19;20018;-75
2024/01/09 18:05:40;;;;;;;83.28;34.92;;;-6.90;99.90;;;;;;7592731;19;20025;-74
2024/01/09 18:08:13;;;;;;;93.13;37.28;;;-6.90;99.90;;;;;;7598698;19;20044;-75
2024/01/09 18:10:49;;;;;;;95.05;37.53;;;-6.80;99.90;;;;;;7591837;19;22554;-76
2024/01/09 18:13:23;;;;;;;82.65;34.75;;;-6.70;99.90;;;;;;7597195;19;20015;-77
2024/01/09 18:15:56;;;;;;;92.45;37.30;;;-6.70;99.90;;;;;;7591264;19;20878;-76
2024/01/09 18:18:33;;;;;;;92.55;39.55;;;-6.70;99.90;;;;;;7595044;19;20547;-76
2024/01/09 18:21:05;;;;;;;96.22;39.75;;;-6.70;99.90;;;;;;7577822;19;20010;-77
2024/01/09 18:23:38;;;;;;;99.10;41.17;;;-6.60;99.90;;;;;;7596193;19;20022;-75
2024/01/09 18:26:10;;;;;;;106.50;46.78;;;-6.60;99.90;;;;;;7597816;19;20041;-76
2024/01/09 18:28:43;;;;;;;107.90;46.87;;;-6.70;99.90;;;;;;7596963;19;20014;-76
2024/01/09 18:31:16;;;;;;;115.70;46.55;;;-6.80;99.90;;;;;;7600948;19;20026;-76
2024/01/09 18:33:51;;;;;;;118.70;51.13;;;-6.90;99.90;;;;;;7593458;19;20028;-78
2024/01/09 18:36:23;;;;;;;110.43;44.03;;;-7.00;99.90;;;;;;7600107;19;20037;-76
2024/01/09 18:38:56;;;;;;;102.97;44.13;;;-7.00;99.90;;;;;;7600561;19;20020;-77
2024/01/09 18:41:28;;;;;;;105.32;45.72;;;-7.00;99.90;;;;;;7596791;19;20011;-76
2024/01/09 18:44:04;;;;;;;118.72;50.13;;;-6.90;99.90;;;;;;7601921;19;20033;-77
2024/01/09 18:46:37;;;;;;;113.72;47.88;;;-7.00;99.90;;;;;;7592320;19;20850;-76
2024/01/09 18:49:09;;;;;;;125.25;50.95;;;-7.10;99.90;;;;;;7595380;19;20510;-77
2024/01/09 18:51:43;;;;;;;121.70;50.33;;;-7.00;99.90;;;;;;7595495;19;20022;-78
2024/01/09 18:54:15;;;;;;;115.95;47.65;;;-7.00;99.90;;;;;;7606651;19;20108;-79
2024/01/09 18:56:48;;;;;;;124.88;53.75;;;-7.00;99.90;;;;;;7593465;19;20035;-77
2024/01/09 18:59:22;;;;;;;126.25;55.20;;;-6.90;99.90;;;;;;7592360;19;20024;-80
2024/01/09 19:01:56;;;;;;;129.98;56.00;;;-7.00;99.90;;;;;;7592688;19;20022;-76
2024/01/09 19:04:30;;;;;;;119.57;53.67;;;-6.80;99.90;;;;;;7600541;19;20014;-76
2024/01/09 19:07:04;;;;;;;128.77;55.53;;;-6.90;99.90;;;;;;7592670;19;20021;-76
2024/01/09 19:09:36;;;;;;;;;;;-6.90;99.90;;;;;;7612214;19;20014;-76
2024/01/09 19:12:09;;;;;;;116.68;48.47;;;-6.90;99.90;;;;;;7613992;19;19939;-77
2024/01/09 19:14:44;;;;;;;125.47;50.55;;;-6.90;99.90;;;;;;7608168;19;20018;-76
2024/01/09 19:17:16;;;;;;;117.05;49.05;;;-6.90;99.90;;;;;;7617352;19;20564;-77
2024/01/09 19:19:50;;;;;;;107.33;47.43;;;-7.00;99.90;;;;;;7613900;19;20029;-76
2024/01/09 19:22:22;;;;;;;120.93;52.40;;;-7.10;99.90;;;;;;7607247;19;20027;-76
2024/01/09 19:24:55;;;;;;;105.00;48.75;;;-7.10;99.90;;;;;;7605910;19;20489;-77
2024/01/09 19:27:28;;;;;;;109.30;47.20;;;-7.20;99.90;;;;;;7101469;19;10000536;-77
2024/01/09 19:30:01;;;;;;;126.38;51.75;;;-7.30;99.90;;;;;;7608118;19;20022;-76
2024/01/09 19:32:35;;;;;;;;;;;-7.30;99.90;;;;;;7607675;19;20086;-75
2024/01/09 19:35:11;;;;;;;117.38;50.20;;;-7.40;99.90;;;;;;7603393;19;19931;-76
2024/01/09 19:37:44;;;;;;;122.15;50.72;;;-7.30;99.90;;;;;;7598509;19;20843;-74
2024/01/09 19:40:17;;;;;;;118.93;50.88;;;-7.30;99.90;;;;;;7587589;19;20018;-78
2024/01/09 19:42:50;;;;;;;124.82;51.60;;;-7.30;99.90;;;;;;7576426;19;20471;-78
2024/01/09 19:45:23;;;;;;;;;;;-7.30;99.90;;;;;;7593821;19;20019;-75
2024/01/09 19:47:57;;;;;;;124.23;51.00;;;-7.30;99.90;;;;;;7593420;19;21390;-77
2024/01/09 19:50:31;;;;;;;120.25;48.70;;;-7.40;99.90;;;;;;7605515;19;20065;-80
2024/01/09 19:53:06;;;;;;;110.38;49.95;;;-7.30;99.90;;;;;;7598664;19;20026;-78
2024/01/09 19:55:40;;;;;;;122.15;51.08;;;-7.30;99.90;;;;;;7604312;19;20037;-79
2024/01/09 19:58:16;;;;;;;123.72;51.88;;;-7.30;99.90;;;;;;7604419;19;20024;-77
2024/01/09 20:00:51;;;;;;;142.00;55.22;;;-7.30;99.90;;;;;;7611860;19;20111;-78
2024/01/09 20:03:24;;;;;;;123.28;53.28;;;-7.40;99.90;;;;;;7605007;19;20021;-78
2024/01/09 20:05:58;;;;;;;126.00;53.60;;;-7.40;99.90;;;;;;7594511;19;20006;-78
2024/01/09 20:08:32;;;;;;;126.40;54.30;;;-7.40;99.90;;;;;;7606603;19;20010;-77
2024/01/09 20:11:07;;;;;;;132.60;54.55;;;-7.40;99.90;;;;;;7599896;19;20105;-77
2024/01/09 20:13:42;;;;;;;125.70;52.50;;;-7.40;99.90;;;;;;7600274;19;20018;-78
2024/01/09 20:16:15;;;;;;;128.05;55.28;;;-7.40;99.90;;;;;;7593682;19;20018;-77
2024/01/09 20:18:52;;;;;;;125.22;54.67;;;-7.30;99.90;;;;;;7600637;19;21206;-80
2024/01/09 20:21:33;;;;;;;138.23;56.38;;;-7.30;99.90;;;;;;7600296;19;20006;-79
2024/01/09 20:24:09;;;;;;;130.73;54.83;;;-7.30;99.90;;;;;;7584146;19;20014;-80
2024/01/09 20:26:48;;;;;;;130.02;54.78;;;-7.40;99.90;;;;;;7604791;19;20017;-77
2024/01/09 20:29:22;;;;;;;130.25;54.95;;;-7.40;99.90;;;;;;7609033;19;20017;-80
2024/01/09 20:31:57;;;;;;;138.48;57.53;;;-7.50;99.90;;;;;;7596216;19;20051;-78
2024/01/09 20:34:30;;;;;;;140.60;56.33;;;-7.50;99.90;;;;;;7591719;19;20382;-77
2024/01/09 20:37:04;;;;;;;141.43;58.65;;;-7.50;99.90;;;;;;7598123;19;20015;-77
2024/01/09 20:39:38;;;;;;;143.60;59.25;;;-7.40;99.90;;;;;;7600941;19;20015;-80
2024/01/09 20:42:12;;;;;;;142.55;58.38;;;-7.50;99.90;;;;;;7595651;19;20019;-78
2024/01/09 20:44:46;;;;;;;142.85;61.10;;;-7.50;99.90;;;;;;7606677;19;20838;-78
2024/01/09 20:47:20;;;;;;;138.85;60.20;;;-7.50;99.90;;;;;;7596323;19;20022;-78
